Time;durP1;ratioP1;P1;durP2;ratioP2;P2;SDS_P1;SDS_P2;PMS_P1;PMS_P2;Temp;Humidity;BMP_temperature;BMP_pressure;BME280_temperature;BME280_humidity;BME280_pressure;Samples;Min_cycle;Max_cycle;Signal;HPM_P1;HPM_P2
2021/06/08 00:01:22;;;;;;;32.38;22.87;;;;;;;15.14;100.00;98910.37;3930279;73;43654;-22
2021/06/08 00:11:41;;;;;;;39.98;24.77;;;;;;;15.14;100.00;98911.73;4005917;72;28106;-22
2021/06/08 00:16:48;;;;;;;34.48;24.60;;;;;;;15.01;100.00;98909.09;3908974;75;44971;-22
2021/06/08 00:21:54;;;;;;;37.48;24.55;;;;;;;14.89;100.00;98904.59;3939131;75;44085;-22
2021/06/08 00:27:00;;;;;;;36.98;24.43;;;;;;;14.85;100.00;98898.34;3921990;73;44098;-22
2021/06/08 00:32:07;;;;;;;37.08;24.40;;;;;;;14.82;100.00;98907.66;3926530;73;43882;-23
2021/06/08 00:37:14;;;;;;;35.88;24.95;;;;;;;14.80;100.00;98909.73;3912915;73;44394;-21
2021/06/08 00:42:30;;;;;;;39.08;25.37;;;;;;;14.82;100.00;98906.30;3917980;73;42847;-21
2021/06/08 00:47:36;;;;;;;37.10;25.57;;;;;;;14.78;100.00;98908.52;3938272;75;42817;-21
2021/06/08 00:52:42;;;;;;;33.90;24.52;;;;;;;14.79;100.00;98908.03;3912391;75;44091;-21
2021/06/08 00:57:50;;;;;;;37.42;26.37;;;;;;;14.82;100.00;98904.11;3925979;73;44042;-21
2021/06/08 01:02:56;;;;;;;33.75;23.80;;;;;;;14.83;100.00;98889.53;3915908;73;43638;-21
2021/06/08 01:08:02;;;;;;;34.40;23.18;;;;;;;14.84;100.00;98892.05;3925572;73;44062;-22
2021/06/08 01:13:08;;;;;;;37.40;25.40;;;;;;;14.82;100.00;98885.12;3907319;73;44064;-21
2021/06/08 01:18:15;;;;;;;38.00;24.65;;;;;;;14.76;100.00;98882.09;3908401;74;43348;-23
2021/06/08 01:23:21;;;;;;;36.28;24.50;;;;;;;14.67;100.00;98879.08;3908206;74;44034;-22
2021/06/08 01:28:29;;;;;;;36.58;24.35;;;;;;;14.72;100.00;98875.84;3908326;73;44172;-23
2021/06/08 01:33:38;;;;;;;35.50;22.35;;;;;;;14.77;100.00;98874.81;3905594;74;44188;-22
2021/06/08 01:38:45;;;;;;;33.25;22.52;;;;;;;14.85;100.00;98875.28;3906093;73;43197;-23
2021/06/08 01:43:52;;;;;;;41.15;24.70;;;;;;;14.87;100.00;98875.43;3938982;73;44090;-23
2021/06/08 01:48:58;;;;;;;32.95;22.62;;;;;;;14.87;100.00;98875.95;3916760;74;42993;-21
2021/06/08 01:54:08;;;;;;;33.85;22.55;;;;;;;14.85;100.00;98872.57;3908322;74;44134;-21
2021/06/08 01:59:22;;;;;;;31.48;21.07;;;;;;;14.87;100.00;98875.95;3910091;73;44419;-22
2021/06/08 02:04:31;;;;;;;35.28;23.30;;;;;;;14.91;100.00;98877.27;3918077;74;44115;-21
2021/06/08 02:09:42;;;;;;;32.75;22.73;;;;;;;14.95;100.00;98868.59;3919335;73;44182;-21
2021/06/08 02:14:52;;;;;;;30.45;22.10;;;;;;;14.95;100.00;98874.02;3906038;73;44073;-21
2021/06/08 02:20:01;;;;;;;32.48;20.97;;;;;;;14.99;100.00;98870.47;3907358;74;42811;-21
2021/06/08 02:25:11;;;;;;;36.60;24.02;;;;;;;15.02;100.00;98874.67;3915386;73;43650;-22
2021/06/08 02:30:19;;;;;;;33.40;22.05;;;;;;;15.02;100.00;98882.30;3911836;74;43768;-21
2021/06/08 02:35:27;;;;;;;30.57;21.33;;;;;;;15.06;100.00;98883.63;3908106;74;44177;-22
2021/06/08 02:40:34;;;;;;;29.55;20.17;;;;;;;15.10;100.00;98884.98;3907530;73;44027;-21
2021/06/08 02:45:42;;;;;;;30.27;20.50;;;;;;;15.10;100.00;98888.19;3903209;73;44067;-21
2021/06/08 02:50:49;;;;;;;30.17;21.23;;;;;;;15.13;100.00;98883.77;3916963;73;43077;-22
2021/06/08 02:55:56;;;;;;;30.70;20.82;;;;;;;15.13;100.00;98888.33;3915562;74;44543;-22
2021/06/08 03:01:02;;;;;;;32.48;21.07;;;;;;;15.04;100.00;98892.46;3913105;74;43171;-21
2021/06/08 03:06:16;;;;;;;33.83;21.73;;;;;;;15.07;100.00;98893.96;3903916;74;43830;-21
2021/06/08 03:16:39;;;;;;;26.12;19.70;;;;;;;15.10;100.00;98906.69;3990178;73;27196;-20
2021/06/08 03:21:47;;;;;;;33.13;22.60;;;;;;;15.08;100.00;98907.87;3950348;74;42809;-21
2021/06/08 03:26:56;;;;;;;34.63;22.85;;;;;;;15.11;100.00;98908.88;3936633;74;44025;-20
2021/06/08 03:32:04;;;;;;;35.55;23.45;;;;;;;15.03;100.00;98912.48;3937112;74;44180;-22
2021/06/08 03:37:12;;;;;;;32.17;21.60;;;;;;;15.05;100.00;98910.44;3902218;74;43487;-22
2021/06/08 03:42:19;;;;;;;28.95;19.87;;;;;;;15.09;100.00;98913.14;3916421;74;43468;-22
2021/06/08 03:47:27;;;;;;;28.92;19.73;;;;;;;15.17;100.00;98920.89;3936670;74;43441;-22
2021/06/08 03:52:33;;;;;;;32.78;22.82;;;;;;;15.21;100.00;98921.70;3947861;74;43446;-22
2021/06/08 03:57:45;;;;;;;30.23;21.35;;;;;;;15.21;100.00;98917.63;3922082;74;44074;-22
2021/06/08 04:02:50;;;;;;;24.50;17.15;;;;;;;15.30;100.00;98918.92;3941715;74;43681;-22
2021/06/08 04:07:57;;;;;;;27.87;20.32;;;;;;;15.38;100.00;98905.32;3928048;74;43016;-21
2021/06/08 04:13:09;;;;;;;31.75;21.35;;;;;;;15.46;100.00;98916.11;3935997;74;44145;-22
2021/06/08 04:18:15;;;;;;;26.25;18.82;;;;;;;15.59;100.00;98925.00;3898002;75;44497;-22
2021/06/08 04:23:26;;;;;;;30.15;21.17;;;;;;;15.60;100.00;98919.07;3904465;74;44057;-22
2021/06/08 04:28:32;;;;;;;27.42;19.60;;;;;;;15.62;100.00;98914.31;3910610;75;43681;-22
2021/06/08 04:33:38;;;;;;;34.45;22.02;;;;;;;15.66;100.00;98919.19;3924723;75;43309;-22
2021/06/08 04:38:44;;;;;;;31.07;21.37;;;;;;;15.68;100.00;98923.07;3923166;75;44082;-22
2021/06/08 04:49:03;;;;;;;28.32;20.52;;;;;;;15.77;100.00;98926.58;3953520;73;27925;-19
2021/06/08 04:54:09;;;;;;;32.08;21.33;;;;;;;15.78;100.00;98920.11;3931601;74;43086;-22
2021/06/08 04:59:18;;;;;;;34.15;22.22;;;;;;;15.86;100.00;98926.86;3929743;75;44058;-22
2021/06/08 05:04:25;;;;;;;30.37;22.07;;;;;;;15.88;100.00;98935.68;3916048;75;43381;-22
2021/06/08 05:09:35;;;;;;;30.70;21.93;;;;;;;15.89;100.00;98931.08;3916189;74;44083;-22
2021/06/08 05:14:47;;;;;;;29.10;20.97;;;;;;;16.04;100.00;98933.86;3916900;75;43058;-22
2021/06/08 05:19:55;;;;;;;30.60;20.97;;;;;;;16.15;100.00;98934.77;3918827;75;43344;-22
2021/06/08 05:25:01;;;;;;;29.52;21.80;;;;;;;16.28;100.00;98937.70;3916972;74;43124;-21
2021/06/08 05:30:11;;;;;;;32.53;22.45;;;;;;;16.32;100.00;98936.27;3897968;75;44388;-20
2021/06/08 05:35:18;;;;;;;30.55;21.05;;;;;;;16.42;100.00;98936.02;3909968;75;44071;-22
2021/06/08 05:40:27;;;;;;;31.17;21.27;;;;;;;16.59;100.00;98938.03;3915509;74;44117;-22
2021/06/08 05:45:34;;;;;;;28.92;20.45;;;;;;;16.72;100.00;98939.25;3910052;74;44073;-21
2021/06/08 05:50:41;;;;;;;28.60;20.35;;;;;;;16.88;100.00;98945.83;3867337;76;42721;-21
2021/06/08 05:55:50;;;;;;;27.27;20.00;;;;;;;16.97;100.00;98942.53;3875165;74;43497;-21
2021/06/08 06:00:57;;;;;;;25.27;18.62;;;;;;;17.16;100.00;98944.34;3873154;74;43494;-21
2021/06/08 06:06:06;;;;;;;35.90;24.87;;;;;;;17.36;100.00;98944.05;3871373;75;44514;-21
2021/06/08 06:11:14;;;;;;;30.82;22.52;;;;;;;17.51;100.00;98942.63;3876722;74;44474;-21
2021/06/08 06:16:22;;;;;;;34.40;25.52;;;;;;;17.53;100.00;98943.28;3862400;75;43725;-21
2021/06/08 06:21:29;;;;;;;36.45;24.90;;;;;;;17.55;100.00;98938.99;3816822;76;410288;-21
2021/06/08 06:26:36;;;;;;;40.03;26.52;;;;;;;17.59;100.00;98945.75;3756789;77;43360;-21
2021/06/08 06:31:46;;;;;;;44.95;28.45;;;;;;;17.34;100.00;98949.37;3755709;77;44042;-21
2021/06/08 06:36:56;;;;;;;40.30;27.45;;;;;;;17.34;100.00;98949.37;3754888;79;44465;-21
2021/06/08 06:47:18;;;;;;;44.55;29.00;;;;;;;17.65;100.00;98944.13;3999010;73;27535;-19
2021/06/08 06:57:37;;;;;;;40.80;28.02;;;;;;;17.66;100.00;98951.27;4013764;72;27247;-19
2021/06/08 07:02:45;;;;;;;40.20;27.98;;;;;;;17.58;100.00;98950.05;3961736;73;44211;-22
2021/06/08 07:07:52;;;;;;;42.48;28.17;;;;;;;17.57;100.00;98946.45;3964160;73;44110;-22
2021/06/08 07:13:03;;;;;;;36.80;26.07;;;;;;;17.76;100.00;98950.42;3963805;73;43374;-22
2021/06/08 07:18:09;;;;;;;34.67;25.02;;;;;;;17.96;100.00;98956.56;3968390;73;44169;-22
2021/06/08 07:23:17;;;;;;;41.80;26.60;;;;;;;18.33;100.00;98954.09;3957716;73;43368;-22
2021/06/08 07:28:24;;;;;;;39.42;26.35;;;;;;;18.59;100.00;98958.55;3960397;75;42913;-22
2021/06/08 07:33:34;;;;;;;34.92;25.88;;;;;;;18.79;100.00;98955.95;3957907;73;43237;-23
2021/06/08 07:38:43;;;;;;;37.67;25.05;;;;;;;19.02;100.00;98963.02;3956945;73;44112;-22
2021/06/08 07:43:57;;;;;;;34.15;25.72;;;;;;;19.35;100.00;98961.77;3961109;73;44874;-23
2021/06/08 07:49:04;;;;;;;35.38;25.62;;;;;;;19.59;100.00;98958.15;3888234;75;43730;-23
2021/06/08 07:54:11;;;;;;;34.80;24.98;;;;;;;19.92;100.00;98958.78;3961510;73;43404;-21
2021/06/08 07:59:17;;;;;;;33.70;24.72;;;;;;;19.94;100.00;98955.28;3851971;76;44546;-23
2021/06/08 08:04:23;;;;;;;31.35;22.80;;;;;;;20.21;100.00;98951.20;3965327;73;43682;-21
2021/06/08 08:09:31;;;;;;;32.28;23.67;;;;;;;20.26;100.00;98952.78;3975167;73;42885;-21
2021/06/08 08:14:38;;;;;;;33.88;24.98;;;;;;;19.87;100.00;98954.45;3957738;74;44051;-21
2021/06/08 08:19:45;;;;;;;34.20;24.20;;;;;;;19.91;100.00;98954.36;3965491;74;43652;-22
2021/06/08 08:24:51;;;;;;;33.08;23.52;;;;;;;20.28;100.00;98957.53;3970599;73;44546;-22
2021/06/08 08:29:58;;;;;;;26.82;21.25;;;;;;;20.48;100.00;98956.66;3969678;74;44549;-21
2021/06/08 08:35:06;;;;;;;28.60;22.87;;;;;;;20.88;100.00;98958.48;3962519;73;44081;-21
2021/06/08 08:40:13;;;;;;;31.87;22.60;;;;;;;20.96;100.00;98955.50;3969239;73;43750;-22
2021/06/08 08:45:21;;;;;;;29.87;23.67;;;;;;;21.19;100.00;98955.00;3963810;74;44631;-22
2021/06/08 08:50:28;;;;;;;29.15;22.27;;;;;;;21.02;100.00;98949.69;3968343;74;44028;-22
2021/06/08 08:55:37;;;;;;;29.05;22.62;;;;;;;21.02;100.00;98950.55;3952369;73;43677;-21
2021/06/08 09:00:44;;;;;;;27.50;23.12;;;;;;;21.32;100.00;98951.34;3934740;74;44177;-22
2021/06/08 09:05:55;;;;;;;28.17;22.48;;;;;;;21.03;100.00;98948.63;3935349;74;43730;-22
2021/06/08 09:11:01;;;;;;;32.83;24.43;;;;;;;21.31;100.00;98941.44;3930153;73;43236;-22
2021/06/08 09:16:09;;;;;;;29.80;23.42;;;;;;;20.84;100.00;98946.27;3936576;74;44061;-22
2021/06/08 09:21:19;;;;;;;26.70;22.52;;;;;;;21.00;100.00;98944.95;3931384;74;43453;-22
2021/06/08 09:26:26;;;;;;;27.30;22.27;;;;;;;21.48;100.00;98940.40;3933761;73;44145;-21
2021/06/08 09:31:32;;;;;;;31.55;22.75;;;;;;;21.67;100.00;98940.55;3936371;74;43452;-22
2021/06/08 09:36:39;;;;;;;26.60;21.40;;;;;;;21.97;100.00;98924.80;3942746;74;43686;-22
2021/06/08 09:41:49;;;;;;;25.60;22.48;;;;;;;22.03;100.00;98932.16;3932947;73;43464;-22
2021/06/08 09:46:56;;;;;;;25.17;21.00;;;;;;;21.78;100.00;98936.23;3930375;73;44588;-22
2021/06/08 09:52:04;;;;;;;27.73;21.50;;;;;;;21.86;100.00;98925.84;3932229;74;43260;-22
2021/06/08 09:57:16;;;;;;;24.87;20.85;;;;;;;22.33;100.00;98923.22;3950468;74;43476;-22
2021/06/08 10:02:25;;;;;;;24.63;21.60;;;;;;;22.36;100.00;98921.92;3964021;74;44180;-22
2021/06/08 10:07:32;;;;;;;25.27;20.43;;;;;;;22.60;100.00;98918.87;3960780;73;43374;-22
2021/06/08 10:12:40;;;;;;;22.37;19.85;;;;;;;22.82;100.00;98913.75;3962985;73;43453;-21
2021/06/08 10:17:46;;;;;;;23.42;19.87;;;;;;;23.03;100.00;98901.45;3966314;73;43246;-22
2021/06/08 10:22:54;;;;;;;23.32;19.52;;;;;;;22.87;100.00;98907.59;3956325;74;43686;-21
2021/06/08 10:28:01;;;;;;;22.80;19.42;;;;;;;23.31;100.00;98902.81;3957714;74;44028;-22
2021/06/08 10:33:08;;;;;;;20.57;17.85;;;;;;;23.37;100.00;98902.42;3972265;74;43103;-22
2021/06/08 10:38:16;;;;;;;24.02;18.70;;;;;;;23.50;98.27;98903.61;3955747;73;43685;-22
2021/06/08 10:43:25;;;;;;;20.60;18.37;;;;;;;23.62;97.06;98909.13;3959320;74;43543;-22
2021/06/08 10:48:37;;;;;;;19.77;17.65;;;;;;;23.79;92.71;98897.45;3961400;73;43192;-22
2021/06/08 10:53:43;;;;;;;19.80;17.42;;;;;;;23.97;93.22;98891.88;3967616;73;43324;-22
2021/06/08 10:58:51;;;;;;;21.85;18.73;;;;;;;24.11;97.41;98889.73;3976963;73;43433;-24
2021/06/08 11:04:00;;;;;;;17.70;15.70;;;;;;;24.36;94.60;98885.89;3985776;73;42732;-22
2021/06/08 11:09:12;;;;;;;15.63;14.00;;;;;;;24.46;90.40;98885.30;4001849;73;43719;-22
2021/06/08 11:15:01;;;;;;;20.17;17.17;;;;;;;24.53;89.01;98884.62;3987660;73;42854;-22
2021/06/08 11:20:20;;;;;;;16.93;14.83;;;;;;;24.52;88.68;98884.32;3978332;73;43262;-22
2021/06/08 11:25:45;;;;;;;16.62;14.43;;;;;;;24.51;85.11;98876.31;3979591;73;44169;-21
2021/06/08 11:31:01;;;;;;;19.92;16.82;;;;;;;24.84;85.20;98870.70;3985538;73;44449;-22
2021/06/08 11:36:34;;;;;;;19.27;16.20;;;;;;;24.55;86.32;98872.00;3985365;73;43724;-22
2021/06/08 11:41:55;;;;;;;17.02;15.03;;;;;;;24.13;87.09;98866.11;3992720;73;43413;-22
2021/06/08 11:47:04;;;;;;;17.02;15.20;;;;;;;23.88;88.38;98864.39;3983051;73;42824;-22
2021/06/08 11:52:13;;;;;;;16.93;14.38;;;;;;;24.44;86.21;98867.66;3987371;73;43147;-22
2021/06/08 11:57:37;;;;;;;17.77;14.28;;;;;;;24.27;83.63;98852.92;3960314;73;43251;-22
2021/06/08 12:02:48;;;;;;;17.12;14.43;;;;;;;24.17;84.84;98859.03;3931450;74;43718;-22
2021/06/08 12:07:58;;;;;;;13.32;11.93;;;;;;;24.37;81.04;98853.70;3932611;74;43337;-21
2021/06/08 12:13:05;;;;;;;13.38;11.78;;;;;;;24.48;82.50;98851.48;3933778;74;43538;-21
2021/06/08 12:18:20;;;;;;;15.58;13.85;;;;;;;24.99;80.25;98850.91;3931931;74;44051;-22
2021/06/08 12:23:31;;;;;;;10.63;9.28;;;;;;;25.30;78.70;98843.20;3927419;73;44427;-23
2021/06/08 12:28:39;;;;;;;14.43;12.50;;;;;;;25.47;73.75;98838.56;3935950;74;44484;-23
2021/06/08 12:33:48;;;;;;;12.33;11.10;;;;;;;25.88;74.29;98824.61;3930377;74;42957;-23
2021/06/08 12:38:56;;;;;;;11.95;10.20;;;;;;;24.85;72.46;98833.27;3930119;73;43686;-22
2021/06/08 12:44:04;;;;;;;11.90;10.40;;;;;;;25.75;69.96;98820.84;3930164;74;44364;-22
2021/06/08 12:49:15;;;;;;;11.73;10.53;;;;;;;26.21;65.63;98816.57;3934278;74;44492;-22
2021/06/08 12:54:34;;;;;;;12.85;11.43;;;;;;;26.46;64.67;98813.34;3929976;73;44088;-22
2021/06/08 13:05:00;;;;;;;13.30;12.00;;;;;;;26.24;59.79;98809.98;3988735;73;27670;-20
2021/06/08 13:10:12;;;;;;;11.53;10.35;;;;;;;26.56;64.28;98804.33;3937125;73;44002;-23
2021/06/08 13:15:22;;;;;;;12.25;9.28;;;;;;;27.03;60.88;98798.27;3908824;75;43685;-23
2021/06/08 13:20:31;;;;;;;14.98;11.12;;;;;;;27.27;58.27;98800.71;3924000;75;42980;-22
2021/06/08 13:25:38;;;;;;;11.63;9.35;;;;;;;27.54;59.20;98799.88;3945557;73;43076;-22
2021/06/08 13:30:46;;;;;;;15.18;13.58;;;;;;;27.61;54.92;98805.20;3922885;73;43478;-22
2021/06/08 13:41:08;;;;;;;14.15;12.75;;;;;;;28.07;54.81;98801.38;3962534;73;27691;-19
2021/06/08 13:46:17;;;;;;;16.12;14.20;;;;;;;27.95;58.65;98798.80;3914305;75;45077;-23
2021/06/08 13:51:25;;;;;;;16.37;14.78;;;;;;;28.22;55.24;98792.34;3906457;75;44176;-22
2021/06/08 13:56:39;;;;;;;17.37;15.58;;;;;;;28.55;52.80;98788.89;3915773;74;43698;-22
2021/06/08 14:01:54;;;;;;;16.37;14.80;;;;;;;28.59;54.07;98783.09;3914152;74;44050;-22
2021/06/08 14:07:01;;;;;;;15.35;13.75;;;;;;;28.49;53.19;98781.67;3908156;75;43690;-22
2021/06/08 14:12:09;;;;;;;14.00;12.68;;;;;;;28.97;50.83;98784.34;3918956;75;43276;-22
2021/06/08 14:17:17;;;;;;;17.00;15.25;;;;;;;29.16;52.21;98776.90;3911272;75;43648;-22
2021/06/08 14:22:24;;;;;;;15.25;13.75;;;;;;;29.54;49.31;98768.34;3926667;74;44105;-22
2021/06/08 14:27:34;;;;;;;15.53;13.95;;;;;;;30.02;47.01;98759.67;3928070;75;44016;-22
2021/06/08 14:32:38;;;;;;;12.98;11.70;;;;;;;29.58;47.26;98750.84;3911115;74;42968;-22
2021/06/08 14:37:44;;;;;;;13.90;12.68;;;;;;;29.57;46.10;98747.78;3914322;74;44154;-22
2021/06/08 14:42:52;;;;;;;15.90;14.00;;;;;;;29.62;46.84;98745.56;3896914;75;44057;-22
2021/06/08 14:47:58;;;;;;;16.35;13.72;;;;;;;29.96;44.59;98743.58;3824695;76;42992;-22
2021/06/08 14:58:17;;;;;;;15.63;14.13;;;;;;;30.08;41.01;98732.99;4012109;73;27170;-20
2021/06/08 15:03:23;;;;;;;14.35;12.95;;;;;;;29.77;45.50;98726.11;3961742;73;43302;-21
2021/06/08 15:08:29;;;;;;;15.03;13.43;;;;;;;30.38;45.90;98724.28;3955301;73;43716;-22
2021/06/08 15:13:40;;;;;;;14.07;12.53;;;;;;;30.63;44.73;98725.30;3960230;73;43690;-22
2021/06/08 15:18:46;;;;;;;11.95;10.75;;;;;;;30.68;45.08;98722.47;3971811;73;43018;-22
2021/06/08 15:29:06;;;;;;;11.85;10.65;;;;;;;30.11;41.60;98711.59;3969224;73;27212;-24
2021/06/08 15:39:25;;;;;;;11.93;10.80;;;;;;;30.59;41.67;98714.47;3942027;72;27210;-21
2021/06/08 15:44:31;;;;;;;11.83;10.82;;;;;;;30.01;43.60;98713.56;3916678;75;43659;-23
2021/06/08 15:49:39;;;;;;;12.30;10.35;;;;;;;30.34;43.34;98712.63;3905441;75;44005;-22
2021/06/08 15:54:45;;;;;;;10.98;9.88;;;;;;;29.69;46.05;98710.03;3930783;74;43689;-22
2021/06/08 15:59:53;;;;;;;12.05;10.58;;;;;;;29.69;46.05;98710.03;3918778;75;44034;-22
2021/06/08 16:04:59;;;;;;;11.05;10.05;;;;;;;28.40;47.96;98708.48;3915919;75;44020;-23
2021/06/08 16:10:06;;;;;;;12.78;10.35;;;;;;;27.61;53.44;98706.95;3905359;74;44116;-23
2021/06/08 16:15:15;;;;;;;12.43;9.88;;;;;;;26.97;54.09;98720.52;3916374;75;43136;-21
2021/06/08 16:20:21;;;;;;;9.93;8.93;;;;;;;26.22;57.74;98722.97;3905146;75;44076;-21
2021/06/08 16:25:28;;;;;;;10.30;9.30;;;;;;;25.56;58.05;98713.47;3919949;74;43753;-21
2021/06/08 16:30:35;;;;;;;11.60;9.85;;;;;;;25.59;59.07;98719.02;3918799;75;43971;-21
2021/06/08 16:35:41;;;;;;;11.63;10.28;;;;;;;25.35;60.85;98720.55;3939281;75;43348;-22
2021/06/08 16:40:47;;;;;;;10.85;9.75;;;;;;;24.83;63.71;98719.69;3782668;76;42913;-22
2021/06/08 16:45:53;;;;;;;11.85;10.45;;;;;;;24.34;66.25;98731.66;3907141;74;43686;-22
2021/06/08 16:51:12;;;;;;;11.20;9.85;;;;;;;24.09;66.64;98747.92;3919094;75;43384;-23
2021/06/08 16:56:17;;;;;;;11.83;10.63;;;;;;;23.84;69.21;98747.09;3912151;74;44117;-23
2021/06/08 17:01:23;;;;;;;11.80;10.60;;;;;;;23.70;69.14;98743.73;3914813;74;43361;-22
2021/06/08 17:06:29;;;;;;;11.83;10.63;;;;;;;23.65;70.35;98747.75;3928175;75;44047;-21
2021/06/08 17:11:36;;;;;;;12.40;10.85;;;;;;;23.68;70.46;98746.43;3923317;74;43688;-22
2021/06/08 17:16:42;;;;;;;11.97;10.78;;;;;;;23.50;72.31;98739.12;3910554;74;43138;-23
2021/06/08 17:21:48;;;;;;;12.70;11.15;;;;;;;23.44;73.36;98740.92;3909473;75;43681;-23
2021/06/08 17:26:54;;;;;;;13.90;10.82;;;;;;;23.47;72.84;98749.22;3909142;74;43720;-22
2021/06/08 17:32:00;;;;;;;12.25;10.72;;;;;;;23.49;72.73;98752.58;3917151;75;42941;-23
2021/06/08 17:37:06;;;;;;;11.95;10.85;;;;;;;23.52;72.42;98764.48;3914906;74;43302;-23
2021/06/08 17:42:13;;;;;;;16.77;14.35;;;;;;;23.45;73.85;98760.47;3909597;75;43037;-21
2021/06/08 17:47:19;;;;;;;18.57;15.60;;;;;;;23.15;79.23;98771.49;3899392;74;44078;-21
2021/06/08 17:52:26;;;;;;;18.17;16.37;;;;;;;23.06;80.29;98769.09;3903971;75;44482;-22
2021/06/08 17:57:32;;;;;;;18.52;16.50;;;;;;;22.89;82.75;98768.06;3904166;75;43177;-21
2021/06/08 18:02:39;;;;;;;19.37;16.42;;;;;;;22.66;84.74;98773.77;3908714;75;44422;-23
2021/06/08 18:07:45;;;;;;;18.70;16.57;;;;;;;22.68;84.83;98767.52;3924565;75;44432;-23
2021/06/08 18:12:52;;;;;;;20.20;17.12;;;;;;;22.50;87.97;98760.14;3928434;75;43689;-22
2021/06/08 18:18:01;;;;;;;19.25;17.25;;;;;;;22.33;89.36;98766.77;3932420;74;42835;-22
2021/06/08 18:23:10;;;;;;;18.80;16.77;;;;;;;22.28;90.35;98763.34;3942040;74;44741;-22
2021/06/08 18:28:15;;;;;;;20.72;17.05;;;;;;;22.20;90.95;98759.54;3935048;75;43151;-22
2021/06/08 18:33:22;;;;;;;18.85;16.73;;;;;;;22.16;91.36;98762.42;3923049;74;44554;-22
2021/06/08 18:38:28;;;;;;;17.95;16.07;;;;;;;21.94;92.57;98758.77;3907651;75;43315;-22
2021/06/08 18:43:34;;;;;;;18.50;16.48;;;;;;;21.81;93.51;98756.16;3885903;75;44744;-23
2021/06/08 18:48:41;;;;;;;18.17;16.10;;;;;;;21.72;94.48;98762.45;3876428;74;44110;-21
2021/06/08 18:53:48;;;;;;;18.67;16.73;;;;;;;21.62;95.18;98771.22;3884250;74;44150;-22
2021/06/08 18:58:58;;;;;;;18.15;15.65;;;;;;;21.53;96.83;98777.98;3877723;75;44162;-22
2021/06/08 19:04:06;;;;;;;18.62;16.70;;;;;;;21.32;100.00;98780.61;3880560;75;43699;-23
2021/06/08 19:09:13;;;;;;;20.90;17.55;;;;;;;21.12;100.00;98788.97;3889865;75;43726;-22
2021/06/08 19:14:19;;;;;;;19.35;17.07;;;;;;;21.04;100.00;98784.59;3873650;75;44424;-22
2021/06/08 19:19:25;;;;;;;21.65;17.20;;;;;;;21.00;100.00;98787.45;3875132;75;43204;-22
2021/06/08 19:24:31;;;;;;;19.52;17.25;;;;;;;20.92;100.00;98800.35;3884213;74;42905;-22
2021/06/08 19:29:37;;;;;;;19.70;16.82;;;;;;;20.83;100.00;98798.08;3899665;75;43357;-24
2021/06/08 19:34:44;;;;;;;20.15;17.12;;;;;;;20.80;100.00;98804.84;3884816;75;44086;-24
2021/06/08 19:39:50;;;;;;;19.32;15.85;;;;;;;20.61;100.00;98796.48;3921659;74;43154;-24
2021/06/08 19:44:56;;;;;;;19.70;17.65;;;;;;;20.47;100.00;98800.33;3932252;74;44483;-24
2021/06/08 19:50:02;;;;;;;20.37;18.07;;;;;;;20.39;100.00;98799.22;3928129;74;43048;-23
2021/06/08 19:55:10;;;;;;;21.52;18.40;;;;;;;20.34;100.00;98808.08;3936093;74;44789;-23
2021/06/08 20:05:32;;;;;;;22.20;19.10;;;;;;;20.31;100.00;98818.08;3988733;73;27674;-23
2021/06/08 20:10:38;;;;;;;23.22;18.85;;;;;;;20.07;100.00;98810.02;3935665;73;44432;-22
2021/06/08 20:15:44;;;;;;;22.52;19.20;;;;;;;20.01;100.00;98815.30;3932476;75;44096;-24
2021/06/08 20:26:02;;;;;;;23.22;20.17;;;;;;;19.97;100.00;98815.95;4021317;73;27225;-19
2021/06/08 20:31:09;;;;;;;22.75;20.27;;;;;;;19.77;100.00;98819.48;3948069;74;43664;-23
2021/06/08 20:36:17;;;;;;;25.65;20.85;;;;;;;19.68;100.00;98807.95;3940350;74;44063;-22
2021/06/08 20:41:23;;;;;;;22.52;19.98;;;;;;;19.66;100.00;98806.47;3949027;74;44270;-23
2021/06/08 20:46:35;;;;;;;19.70;17.35;;;;;;;19.69;100.00;98807.41;3940520;74;43706;-23
2021/06/08 20:51:39;;;;;;;22.45;19.05;;;;;;;19.70;100.00;98809.92;3944983;74;44154;-23
2021/06/08 20:56:45;;;;;;;20.50;18.35;;;;;;;19.65;100.00;98817.94;3961533;74;43689;-22
2021/06/08 21:01:51;;;;;;;21.07;18.70;;;;;;;19.65;100.00;98819.30;3924281;74;42975;-22
2021/06/08 21:06:58;;;;;;;21.85;19.42;;;;;;;19.54;100.00;98828.13;3903314;74;44417;-21
2021/06/08 21:12:04;;;;;;;20.77;18.67;;;;;;;19.50;100.00;98824.12;3925258;74;43996;-22
2021/06/08 21:17:10;;;;;;;20.05;17.90;;;;;;;19.51;100.00;98821.71;3946417;74;44438;-21
2021/06/08 21:22:16;;;;;;;23.10;19.23;;;;;;;19.34;100.00;98833.06;3935067;74;43458;-20
2021/06/08 21:27:24;;;;;;;22.02;19.73;;;;;;;19.27;100.00;98830.83;3917475;75;43395;-21
2021/06/08 21:32:30;;;;;;;24.80;20.15;;;;;;;19.18;100.00;98830.18;3912165;74;44051;-22
2021/06/08 21:37:36;;;;;;;23.65;20.88;;;;;;;19.17;100.00;98824.94;3919684;75;43322;-23
2021/06/08 21:42:42;;;;;;;20.95;18.45;;;;;;;19.24;100.00;98828.00;3924310;75;43088;-23
2021/06/08 21:47:48;;;;;;;23.12;19.60;;;;;;;19.27;100.00;98834.93;3923636;75;44070;-23
2021/06/08 21:53:02;;;;;;;21.00;18.80;;;;;;;19.19;100.00;98835.14;3923211;75;43716;-23
2021/06/08 21:58:03;;;;;;;22.15;19.00;;;;;;;19.14;100.00;98832.17;3920845;74;42735;-21
2021/06/08 22:03:10;;;;;;;23.40;20.72;;;;;;;19.13;100.00;98836.80;3905365;74;44145;-21
2021/06/08 22:08:17;;;;;;;23.12;20.45;;;;;;;19.00;100.00;98843.06;3913701;73;43107;-21
2021/06/08 22:13:23;;;;;;;19.87;17.50;;;;;;;18.82;100.00;98842.23;3913263;75;44408;-22
2021/06/08 22:18:29;;;;;;;23.75;20.35;;;;;;;18.81;100.00;98846.55;3924949;75;44070;-21
2021/06/08 22:23:35;;;;;;;23.30;20.65;;;;;;;18.78;100.00;98854.09;3915427;74;43984;-21
2021/06/08 22:28:42;;;;;;;25.65;20.77;;;;;;;18.73;100.00;98858.48;3882175;75;43669;-21
2021/06/08 22:33:48;;;;;;;22.20;19.90;;;;;;;18.65;100.00;98854.03;3900002;75;42805;-22
2021/06/08 22:38:54;;;;;;;22.48;19.65;;;;;;;18.70;100.00;98852.91;3884839;74;44042;-21
2021/06/08 22:43:59;;;;;;;21.30;18.77;;;;;;;18.69;100.00;98855.31;3916229;75;43998;-21
2021/06/08 22:49:06;;;;;;;22.30;18.75;;;;;;;18.58;100.00;98855.90;3878717;75;44045;-21
2021/06/08 22:54:11;;;;;;;19.92;17.82;;;;;;;18.59;100.00;98856.22;3837755;76;44106;-21
2021/06/08 22:59:17;;;;;;;23.60;18.82;;;;;;;18.66;100.00;98850.26;3850660;76;44080;-21
2021/06/08 23:04:24;;;;;;;20.82;18.62;;;;;;;18.60;100.00;98853.81;3891835;74;45182;-22
2021/06/08 23:09:30;;;;;;;23.45;18.90;;;;;;;18.47;100.00;98854.06;3826576;76;44428;-22
2021/06/08 23:14:36;;;;;;;23.90;20.60;;;;;;;18.27;100.00;98853.95;3835027;77;43989;-22
2021/06/08 23:19:42;;;;;;;22.50;18.30;;;;;;;18.07;100.00;98850.27;3853646;76;42971;-22
2021/06/08 23:24:48;;;;;;;21.97;19.25;;;;;;;18.06;100.00;98845.31;3866278;75;43420;-22
2021/06/08 23:29:54;;;;;;;21.33;19.05;;;;;;;17.99;100.00;98845.27;3777983;78;44127;-21
2021/06/08 23:35:01;;;;;;;22.27;19.12;;;;;;;18.00;100.00;98844.77;3925383;75;43514;-21
2021/06/08 23:40:10;;;;;;;23.18;19.15;;;;;;;17.97;100.00;98836.98;3911758;74;44813;-21
2021/06/08 23:45:18;;;;;;;23.70;20.20;;;;;;;18.03;100.00;98841.64;3916429;74;43348;-21
2021/06/08 23:50:25;;;;;;;23.60;20.57;;;;;;;18.05;100.00;98846.36;3904246;75;43679;-23
2021/06/08 23:55:31;;;;;;;24.07;20.52;;;;;;;17.91;100.00;98845.39;3921902;75;43331;-22
